sensor_id;sensor_type;location;lat;lon;timestamp;temperature;humidity
3644;DHT22;1838;50.742;7.158;2024-02-23T00:01:03;7.30;99.90
3644;DHT22;1838;50.742;7.158;2024-02-23T00:03:29;7.30;99.90
3644;DHT22;1838;50.742;7.158;2024-02-23T00:05:54;7.20;99.90
3644;DHT22;1838;50.742;7.158;2024-02-23T00:08:20;7.20;99.90
3644;DHT22;1838;50.742;7.158;2024-02-23T00:10:45;7.20;99.90
3644;DHT22;1838;50.742;7.158;2024-02-23T00:13:11;7.20;99.90
3644;DHT22;1838;50.742;7.158;2024-02-23T00:15:37;7.30;99.90
3644;DHT22;1838;50.742;7.158;2024-02-23T00:18:02;7.30;99.90
3644;DHT22;1838;50.742;7.158;2024-02-23T00:20:29;7.30;99.90
3644;DHT22;1838;50.742;7.158;2024-02-23T00:22:55;7.20;99.90
3644;DHT22;1838;50.742;7.158;2024-02-23T00:25:20;7.20;99.90
3644;DHT22;1838;50.742;7.158;2024-02-23T00:27:46;7.20;99.90
3644;DHT22;1838;50.742;7.158;2024-02-23T00:30:13;7.20;99.90
3644;DHT22;1838;50.742;7.158;2024-02-23T00:32:39;7.10;99.90
3644;DHT22;1838;50.742;7.158;2024-02-23T00:35:05;7.00;99.90
3644;DHT22;1838;50.742;7.158;2024-02-23T00:37:30;7.00;99.90
3644;DHT22;1838;50.742;7.158;2024-02-23T00:40:01;7.00;99.90
3644;DHT22;1838;50.742;7.158;2024-02-23T00:42:29;7.00;99.90
3644;DHT22;1838;50.742;7.158;2024-02-23T00:44:55;7.00;99.90
3644;DHT22;1838;50.742;7.158;2024-02-23T00:47:20;6.90;99.90
3644;DHT22;1838;50.742;7.158;2024-02-23T00:49:46;6.90;99.90
3644;DHT22;1838;50.742;7.158;2024-02-23T00:52:11;6.90;99.90
3644;DHT22;1838;50.742;7.158;2024-02-23T00:54:37;6.80;99.90
3644;DHT22;1838;50.742;7.158;2024-02-23T00:57:02;6.80;99.90
3644;DHT22;1838;50.742;7.158;2024-02-23T00:59:28;6.80;99.90
3644;DHT22;1838;50.742;7.158;2024-02-23T01:01:54;6.70;99.90
3644;DHT22;1838;50.742;7.158;2024-02-23T01:04:20;6.70;99.90
3644;DHT22;1838;50.742;7.158;2024-02-23T01:06:46;6.70;99.90
3644;DHT22;1838;50.742;7.158;2024-02-23T01:09:11;6.60;99.90
3644;DHT22;1838;50.742;7.158;2024-02-23T01:11:37;6.50;99.90
3644;DHT22;1838;50.742;7.158;2024-02-23T01:14:02;6.50;99.90
3644;DHT22;1838;50.742;7.158;2024-02-23T01:16:28;6.50;99.90
3644;DHT22;1838;50.742;7.158;2024-02-23T01:18:53;6.40;99.90
3644;DHT22;1838;50.742;7.158;2024-02-23T01:21:19;6.30;99.90
3644;DHT22;1838;50.742;7.158;2024-02-23T01:23:45;6.30;99.90
3644;DHT22;1838;50.742;7.158;2024-02-23T01:26:10;6.30;99.90
3644;DHT22;1838;50.742;7.158;2024-02-23T01:28:36;6.30;99.90
3644;DHT22;1838;50.742;7.158;2024-02-23T01:31:02;6.20;99.90
3644;DHT22;1838;50.742;7.158;2024-02-23T01:33:29;6.20;99.90
3644;DHT22;1838;50.742;7.158;2024-02-23T01:35:54;6.10;99.90
3644;DHT22;1838;50.742;7.158;2024-02-23T01:38:21;6.20;99.90
3644;DHT22;1838;50.742;7.158;2024-02-23T01:40:47;6.10;99.90
3644;DHT22;1838;50.742;7.158;2024-02-23T01:43:13;6.10;99.90
3644;DHT22;1838;50.742;7.158;2024-02-23T01:45:39;6.00;99.90
3644;DHT22;1838;50.742;7.158;2024-02-23T01:48:05;6.00;99.90
3644;DHT22;1838;50.742;7.158;2024-02-23T01:50:32;6.10;99.90
3644;DHT22;1838;50.742;7.158;2024-02-23T01:53:00;6.00;99.90
3644;DHT22;1838;50.742;7.158;2024-02-23T01:55:26;6.00;99.90
3644;DHT22;1838;50.742;7.158;2024-02-23T01:57:52;6.00;99.90
3644;DHT22;1838;50.742;7.158;2024-02-23T02:00:20;5.90;99.90
3644;DHT22;1838;50.742;7.158;2024-02-23T02:02:47;5.90;99.90
3644;DHT22;1838;50.742;7.158;2024-02-23T02:05:13;5.90;99.90
3644;DHT22;1838;50.742;7.158;2024-02-23T02:07:40;5.90;99.90
3644;DHT22;1838;50.742;7.158;2024-02-23T02:10:09;5.90;99.90
3644;DHT22;1838;50.742;7.158;2024-02-23T02:12:35;5.90;99.90
3644;DHT22;1838;50.742;7.158;2024-02-23T02:15:01;5.90;99.90
3644;DHT22;1838;50.742;7.158;2024-02-23T02:17:30;5.80;99.90
3644;DHT22;1838;50.742;7.158;2024-02-23T02:19:57;5.90;99.90
3644;DHT22;1838;50.742;7.158;2024-02-23T02:22:23;5.90;99.90
3644;DHT22;1838;50.742;7.158;2024-02-23T02:24:49;5.90;99.90
3644;DHT22;1838;50.742;7.158;2024-02-23T02:27:14;5.80;99.90
3644;DHT22;1838;50.742;7.158;2024-02-23T02:29:40;5.80;99.90
3644;DHT22;1838;50.742;7.158;2024-02-23T02:32:06;5.80;99.90
3644;DHT22;1838;50.742;7.158;2024-02-23T02:34:32;5.80;99.90
3644;DHT22;1838;50.742;7.158;2024-02-23T02:36:58;5.90;99.90
3644;DHT22;1838;50.742;7.158;2024-02-23T02:39:24;5.80;99.90
3644;DHT22;1838;50.742;7.158;2024-02-23T02:41:49;5.80;99.90
3644;DHT22;1838;50.742;7.158;2024-02-23T02:44:15;5.80;99.90
3644;DHT22;1838;50.742;7.158;2024-02-23T02:46:41;5.80;99.90
3644;DHT22;1838;50.742;7.158;2024-02-23T02:49:07;5.80;99.90
3644;DHT22;1838;50.742;7.158;2024-02-23T02:51:32;5.80;99.90
3644;DHT22;1838;50.742;7.158;2024-02-23T02:53:58;5.80;99.90
3644;DHT22;1838;50.742;7.158;2024-02-23T02:56:23;5.70;99.90
3644;DHT22;1838;50.742;7.158;2024-02-23T02:58:49;5.70;99.90
3644;DHT22;1838;50.742;7.158;2024-02-23T03:01:14;5.70;99.90
3644;DHT22;1838;50.742;7.158;2024-02-23T03:03:40;5.80;99.90
3644;DHT22;1838;50.742;7.158;2024-02-23T03:06:06;5.70;99.90
3644;DHT22;1838;50.742;7.158;2024-02-23T03:08:32;5.70;99.90
3644;DHT22;1838;50.742;7.158;2024-02-23T03:10:58;5.70;99.90
3644;DHT22;1838;50.742;7.158;2024-02-23T03:13:24;5.70;99.90
3644;DHT22;1838;50.742;7.158;2024-02-23T03:15:49;5.70;99.90
3644;DHT22;1838;50.742;7.158;2024-02-23T03:18:15;5.60;99.90
3644;DHT22;1838;50.742;7.158;2024-02-23T03:20:44;5.60;99.90
3644;DHT22;1838;50.742;7.158;2024-02-23T03:23:11;5.60;99.90
3644;DHT22;1838;50.742;7.158;2024-02-23T03:25:36;5.60;99.90
3644;DHT22;1838;50.742;7.158;2024-02-23T03:28:02;5.60;99.90
3644;DHT22;1838;50.742;7.158;2024-02-23T03:30:27;5.60;99.90
3644;DHT22;1838;50.742;7.158;2024-02-23T03:32:53;5.50;99.90
3644;DHT22;1838;50.742;7.158;2024-02-23T03:35:18;5.50;99.90
3644;DHT22;1838;50.742;7.158;2024-02-23T03:37:44;5.50;99.90
3644;DHT22;1838;50.742;7.158;2024-02-23T03:40:10;5.50;99.90
3644;DHT22;1838;50.742;7.158;2024-02-23T03:42:36;5.50;99.90
3644;DHT22;1838;50.742;7.158;2024-02-23T03:45:02;5.50;99.90
3644;DHT22;1838;50.742;7.158;2024-02-23T03:47:27;5.60;99.90
3644;DHT22;1838;50.742;7.158;2024-02-23T03:49:54;5.60;99.90
3644;DHT22;1838;50.742;7.158;2024-02-23T03:52:19;5.60;99.90
3644;DHT22;1838;50.742;7.158;2024-02-23T03:54:45;5.60;99.90
3644;DHT22;1838;50.742;7.158;2024-02-23T03:57:10;5.50;99.90
3644;DHT22;1838;50.742;7.158;2024-02-23T03:59:36;5.50;99.90
3644;DHT22;1838;50.742;7.158;2024-02-23T04:02:03;5.50;99.90
3644;DHT22;1838;50.742;7.158;2024-02-23T04:04:29;5.60;99.90
3644;DHT22;1838;50.742;7.158;2024-02-23T04:06:54;5.50;99.90
3644;DHT22;1838;50.742;7.158;2024-02-23T04:09:20;5.50;99.90
3644;DHT22;1838;50.742;7.158;2024-02-23T04:11:47;5.50;99.90
3644;DHT22;1838;50.742;7.158;2024-02-23T04:14:13;5.50;99.90
3644;DHT22;1838;50.742;7.158;2024-02-23T04:16:38;5.50;99.90
3644;DHT22;1838;50.742;7.158;2024-02-23T04:19:04;5.50;99.90
3644;DHT22;1838;50.742;7.158;2024-02-23T04:21:30;5.60;99.90
3644;DHT22;1838;50.742;7.158;2024-02-23T04:23:55;5.50;99.90
3644;DHT22;1838;50.742;7.158;2024-02-23T04:26:21;5.50;99.90
3644;DHT22;1838;50.742;7.158;2024-02-23T04:28:47;5.50;99.90
3644;DHT22;1838;50.742;7.158;2024-02-23T04:31:12;5.60;99.90
3644;DHT22;1838;50.742;7.158;2024-02-23T04:33:38;5.60;99.90
3644;DHT22;1838;50.742;7.158;2024-02-23T04:36:04;5.60;99.90
3644;DHT22;1838;50.742;7.158;2024-02-23T04:38:30;5.60;99.90
3644;DHT22;1838;50.742;7.158;2024-02-23T04:40:57;5.60;99.90
3644;DHT22;1838;50.742;7.158;2024-02-23T04:43:24;5.60;99.90
3644;DHT22;1838;50.742;7.158;2024-02-23T04:45:51;5.60;99.90
3644;DHT22;1838;50.742;7.158;2024-02-23T04:48:16;5.50;99.90
3644;DHT22;1838;50.742;7.158;2024-02-23T04:50:42;5.60;99.90
3644;DHT22;1838;50.742;7.158;2024-02-23T04:53:07;5.50;99.90
3644;DHT22;1838;50.742;7.158;2024-02-23T04:55:33;5.40;99.90
3644;DHT22;1838;50.742;7.158;2024-02-23T04:57:59;5.30;99.90
3644;DHT22;1838;50.742;7.158;2024-02-23T05:00:24;5.30;99.90
3644;DHT22;1838;50.742;7.158;2024-02-23T05:02:54;5.30;99.90
3644;DHT22;1838;50.742;7.158;2024-02-23T05:05:19;5.30;99.90
3644;DHT22;1838;50.742;7.158;2024-02-23T05:07:47;5.30;99.90
3644;DHT22;1838;50.742;7.158;2024-02-23T05:10:12;5.20;99.90
3644;DHT22;1838;50.742;7.158;2024-02-23T05:12:38;5.20;99.90
3644;DHT22;1838;50.742;7.158;2024-02-23T05:15:04;5.20;99.90
3644;DHT22;1838;50.742;7.158;2024-02-23T05:17:29;5.20;99.90
3644;DHT22;1838;50.742;7.158;2024-02-23T05:19:55;5.20;99.90
3644;DHT22;1838;50.742;7.158;2024-02-23T05:22:20;5.10;99.90
3644;DHT22;1838;50.742;7.158;2024-02-23T05:24:46;5.00;99.90
3644;DHT22;1838;50.742;7.158;2024-02-23T05:27:11;5.00;99.90
3644;DHT22;1838;50.742;7.158;2024-02-23T05:29:37;5.00;99.90
3644;DHT22;1838;50.742;7.158;2024-02-23T05:32:02;5.00;99.90
3644;DHT22;1838;50.742;7.158;2024-02-23T05:34:28;5.00;99.90
3644;DHT22;1838;50.742;7.158;2024-02-23T05:36:53;5.00;99.90
3644;DHT22;1838;50.742;7.158;2024-02-23T05:39:19;5.00;99.90
3644;DHT22;1838;50.742;7.158;2024-02-23T05:41:45;5.00;99.90
3644;DHT22;1838;50.742;7.158;2024-02-23T05:44:10;5.00;99.90
3644;DHT22;1838;50.742;7.158;2024-02-23T05:46:36;5.00;99.90
3644;DHT22;1838;50.742;7.158;2024-02-23T05:49:02;5.00;99.90
3644;DHT22;1838;50.742;7.158;2024-02-23T05:51:29;5.10;99.90
3644;DHT22;1838;50.742;7.158;2024-02-23T05:53:55;5.10;99.90
3644;DHT22;1838;50.742;7.158;2024-02-23T05:56:21;5.20;99.90
3644;DHT22;1838;50.742;7.158;2024-02-23T05:58:49;5.10;99.90
3644;DHT22;1838;50.742;7.158;2024-02-23T06:01:14;5.20;99.90
3644;DHT22;1838;50.742;7.158;2024-02-23T06:03:40;5.10;99.90
3644;DHT22;1838;50.742;7.158;2024-02-23T06:06:08;5.20;99.90
3644;DHT22;1838;50.742;7.158;2024-02-23T06:08:35;5.10;99.90
3644;DHT22;1838;50.742;7.158;2024-02-23T06:11:01;5.20;99.90
3644;DHT22;1838;50.742;7.158;2024-02-23T06:13:28;5.20;99.90
3644;DHT22;1838;50.742;7.158;2024-02-23T06:15:54;5.10;99.90
3644;DHT22;1838;50.742;7.158;2024-02-23T06:18:20;5.10;99.90
3644;DHT22;1838;50.742;7.158;2024-02-23T06:20:45;5.20;99.90
3644;DHT22;1838;50.742;7.158;2024-02-23T06:23:11;5.20;99.90
3644;DHT22;1838;50.742;7.158;2024-02-23T06:25:36;5.20;99.90
3644;DHT22;1838;50.742;7.158;2024-02-23T06:28:02;5.30;99.90
3644;DHT22;1838;50.742;7.158;2024-02-23T06:30:28;5.30;99.90
3644;DHT22;1838;50.742;7.158;2024-02-23T06:32:53;5.40;99.90
3644;DHT22;1838;50.742;7.158;2024-02-23T06:35:19;5.40;99.90
3644;DHT22;1838;50.742;7.158;2024-02-23T06:37:44;5.40;99.90
3644;DHT22;1838;50.742;7.158;2024-02-23T06:40:10;5.40;99.90
3644;DHT22;1838;50.742;7.158;2024-02-23T06:42:36;5.40;99.90
3644;DHT22;1838;50.742;7.158;2024-02-23T06:45:01;5.50;99.90
3644;DHT22;1838;50.742;7.158;2024-02-23T06:47:27;5.60;99.90
3644;DHT22;1838;50.742;7.158;2024-02-23T06:49:52;5.60;99.90
3644;DHT22;1838;50.742;7.158;2024-02-23T06:52:18;5.70;99.90
3644;DHT22;1838;50.742;7.158;2024-02-23T06:54:44;5.70;99.90
3644;DHT22;1838;50.742;7.158;2024-02-23T06:57:10;5.80;99.90
3644;DHT22;1838;50.742;7.158;2024-02-23T06:59:36;5.80;99.90
3644;DHT22;1838;50.742;7.158;2024-02-23T07:02:01;5.90;99.90
3644;DHT22;1838;50.742;7.158;2024-02-23T07:04:27;5.90;99.90
3644;DHT22;1838;50.742;7.158;2024-02-23T07:06:54;5.90;99.90
3644;DHT22;1838;50.742;7.158;2024-02-23T07:09:21;5.90;99.90
3644;DHT22;1838;50.742;7.158;2024-02-23T07:11:46;6.00;99.90
3644;DHT22;1838;50.742;7.158;2024-02-23T07:14:12;6.00;99.90
3644;DHT22;1838;50.742;7.158;2024-02-23T07:16:40;6.00;99.90
3644;DHT22;1838;50.742;7.158;2024-02-23T07:19:06;6.00;99.90
3644;DHT22;1838;50.742;7.158;2024-02-23T07:21:32;6.10;99.90
3644;DHT22;1838;50.742;7.158;2024-02-23T07:23:58;6.10;99.90
3644;DHT22;1838;50.742;7.158;2024-02-23T07:26:24;6.20;99.90
3644;DHT22;1838;50.742;7.158;2024-02-23T07:28:49;6.20;99.90
3644;DHT22;1838;50.742;7.158;2024-02-23T07:31:15;6.30;99.90
3644;DHT22;1838;50.742;7.158;2024-02-23T07:33:42;6.40;99.90
3644;DHT22;1838;50.742;7.158;2024-02-23T07:36:13;6.40;99.90
3644;DHT22;1838;50.742;7.158;2024-02-23T07:38:38;6.30;99.90
3644;DHT22;1838;50.742;7.158;2024-02-23T07:41:04;6.30;99.90
3644;DHT22;1838;50.742;7.158;2024-02-23T07:43:29;6.40;99.90
3644;DHT22;1838;50.742;7.158;2024-02-23T07:45:55;6.40;99.90
3644;DHT22;1838;50.742;7.158;2024-02-23T07:48:20;6.40;99.90
3644;DHT22;1838;50.742;7.158;2024-02-23T07:50:46;6.50;99.90
3644;DHT22;1838;50.742;7.158;2024-02-23T07:53:11;6.60;99.90
3644;DHT22;1838;50.742;7.158;2024-02-23T07:55:37;6.60;99.90
3644;DHT22;1838;50.742;7.158;2024-02-23T07:58:03;6.60;99.90
3644;DHT22;1838;50.742;7.158;2024-02-23T08:00:28;6.60;99.90
3644;DHT22;1838;50.742;7.158;2024-02-23T08:02:54;6.60;99.90
3644;DHT22;1838;50.742;7.158;2024-02-23T08:05:22;6.60;99.90
3644;DHT22;1838;50.742;7.158;2024-02-23T08:07:48;6.60;99.90
3644;DHT22;1838;50.742;7.158;2024-02-23T08:10:14;6.70;99.90
3644;DHT22;1838;50.742;7.158;2024-02-23T08:12:39;6.70;99.90
3644;DHT22;1838;50.742;7.158;2024-02-23T08:15:06;6.70;99.90
3644;DHT22;1838;50.742;7.158;2024-02-23T08:17:32;6.80;99.90
3644;DHT22;1838;50.742;7.158;2024-02-23T08:19:57;6.80;99.90
3644;DHT22;1838;50.742;7.158;2024-02-23T08:22:23;6.80;99.90
3644;DHT22;1838;50.742;7.158;2024-02-23T08:24:49;6.90;99.90
3644;DHT22;1838;50.742;7.158;2024-02-23T08:27:14;6.90;99.90
3644;DHT22;1838;50.742;7.158;2024-02-23T08:29:40;7.00;99.90
3644;DHT22;1838;50.742;7.158;2024-02-23T08:32:06;7.10;99.90
3644;DHT22;1838;50.742;7.158;2024-02-23T08:34:32;7.10;99.90
3644;DHT22;1838;50.742;7.158;2024-02-23T08:36:58;7.10;99.90
3644;DHT22;1838;50.742;7.158;2024-02-23T08:39:23;7.20;99.90
3644;DHT22;1838;50.742;7.158;2024-02-23T08:41:49;7.20;99.90
3644;DHT22;1838;50.742;7.158;2024-02-23T08:44:16;7.30;99.90
3644;DHT22;1838;50.742;7.158;2024-02-23T08:46:42;7.30;99.90
3644;DHT22;1838;50.742;7.158;2024-02-23T08:49:07;7.40;99.90
3644;DHT22;1838;50.742;7.158;2024-02-23T08:51:33;7.40;99.90
3644;DHT22;1838;50.742;7.158;2024-02-23T08:53:58;7.50;99.90
3644;DHT22;1838;50.742;7.158;2024-02-23T08:56:29;7.60;99.90
3644;DHT22;1838;50.742;7.158;2024-02-23T08:58:55;7.60;99.90
3644;DHT22;1838;50.742;7.158;2024-02-23T09:01:21;7.60;99.90
3644;DHT22;1838;50.742;7.158;2024-02-23T09:03:46;7.80;99.90
3644;DHT22;1838;50.742;7.158;2024-02-23T09:06:12;7.80;99.90
3644;DHT22;1838;50.742;7.158;2024-02-23T09:08:38;7.90;99.90
3644;DHT22;1838;50.742;7.158;2024-02-23T09:11:04;8.00;99.90
3644;DHT22;1838;50.742;7.158;2024-02-23T09:13:29;8.00;99.90
3644;DHT22;1838;50.742;7.158;2024-02-23T09:15:55;8.10;99.90
3644;DHT22;1838;50.742;7.158;2024-02-23T09:18:21;8.30;99.90
3644;DHT22;1838;50.742;7.158;2024-02-23T09:20:46;8.30;99.90
3644;DHT22;1838;50.742;7.158;2024-02-23T09:23:12;8.30;99.90
3644;DHT22;1838;50.742;7.158;2024-02-23T09:25:39;8.20;99.90
3644;DHT22;1838;50.742;7.158;2024-02-23T09:28:04;8.30;99.90
3644;DHT22;1838;50.742;7.158;2024-02-23T09:30:30;8.20;99.90
3644;DHT22;1838;50.742;7.158;2024-02-23T09:32:56;8.20;99.90
3644;DHT22;1838;50.742;7.158;2024-02-23T09:35:21;8.20;99.90
3644;DHT22;1838;50.742;7.158;2024-02-23T09:37:47;8.30;99.90
3644;DHT22;1838;50.742;7.158;2024-02-23T09:40:14;8.30;99.90
3644;DHT22;1838;50.742;7.158;2024-02-23T09:42:41;8.40;99.90
3644;DHT22;1838;50.742;7.158;2024-02-23T09:45:07;8.40;99.90
3644;DHT22;1838;50.742;7.158;2024-02-23T09:47:34;8.50;99.90
3644;DHT22;1838;50.742;7.158;2024-02-23T09:50:01;8.50;99.90
3644;DHT22;1838;50.742;7.158;2024-02-23T09:52:29;8.50;99.90
3644;DHT22;1838;50.742;7.158;2024-02-23T09:54:54;8.50;99.90
3644;DHT22;1838;50.742;7.158;2024-02-23T09:57:21;8.50;99.90
3644;DHT22;1838;50.742;7.158;2024-02-23T09:59:48;8.50;99.90
3644;DHT22;1838;50.742;7.158;2024-02-23T10:02:16;8.60;99.90
3644;DHT22;1838;50.742;7.158;2024-02-23T10:04:43;8.60;99.90
3644;DHT22;1838;50.742;7.158;2024-02-23T10:07:09;8.60;99.90
3644;DHT22;1838;50.742;7.158;2024-02-23T10:09:35;8.60;99.90
3644;DHT22;1838;50.742;7.158;2024-02-23T10:12:02;8.60;99.90
3644;DHT22;1838;50.742;7.158;2024-02-23T10:14:28;8.70;99.90
3644;DHT22;1838;50.742;7.158;2024-02-23T10:16:53;8.80;99.90
3644;DHT22;1838;50.742;7.158;2024-02-23T10:19:23;8.80;99.90
3644;DHT22;1838;50.742;7.158;2024-02-23T10:21:54;8.90;99.90
3644;DHT22;1838;50.742;7.158;2024-02-23T10:24:20;8.90;99.90
3644;DHT22;1838;50.742;7.158;2024-02-23T10:26:46;8.90;99.90
3644;DHT22;1838;50.742;7.158;2024-02-23T10:29:12;9.10;99.90
3644;DHT22;1838;50.742;7.158;2024-02-23T10:31:38;9.20;99.90
3644;DHT22;1838;50.742;7.158;2024-02-23T10:34:09;9.30;99.90
3644;DHT22;1838;50.742;7.158;2024-02-23T10:36:40;9.30;99.90
3644;DHT22;1838;50.742;7.158;2024-02-23T10:39:06;9.30;99.90
3644;DHT22;1838;50.742;7.158;2024-02-23T10:41:35;9.40;99.90
3644;DHT22;1838;50.742;7.158;2024-02-23T10:44:03;9.40;99.90
3644;DHT22;1838;50.742;7.158;2024-02-23T10:46:31;9.40;99.90
3644;DHT22;1838;50.742;7.158;2024-02-23T10:48:58;9.60;99.90
3644;DHT22;1838;50.742;7.158;2024-02-23T10:51:25;9.90;99.90
3644;DHT22;1838;50.742;7.158;2024-02-23T10:53:52;10.10;99.90
3644;DHT22;1838;50.742;7.158;2024-02-23T10:56:18;10.30;99.90
3644;DHT22;1838;50.742;7.158;2024-02-23T10:58:45;10.50;99.90
3644;DHT22;1838;50.742;7.158;2024-02-23T11:01:13;10.70;99.90
3644;DHT22;1838;50.742;7.158;2024-02-23T11:03:41;10.60;99.90
3644;DHT22;1838;50.742;7.158;2024-02-23T11:06:08;10.60;99.90
3644;DHT22;1838;50.742;7.158;2024-02-23T11:08:34;10.70;99.90
3644;DHT22;1838;50.742;7.158;2024-02-23T11:11:08;10.70;99.90
3644;DHT22;1838;50.742;7.158;2024-02-23T11:13:35;10.80;99.90
3644;DHT22;1838;50.742;7.158;2024-02-23T11:16:05;11.00;99.90
3644;DHT22;1838;50.742;7.158;2024-02-23T11:18:33;11.00;99.90
3644;DHT22;1838;50.742;7.158;2024-02-23T11:21:00;11.00;99.90
3644;DHT22;1838;50.742;7.158;2024-02-23T11:23:27;11.10;99.90
3644;DHT22;1838;50.742;7.158;2024-02-23T11:28:27;11.10;99.90
3644;DHT22;1838;50.742;7.158;2024-02-23T11:30:53;11.10;99.90
3644;DHT22;1838;50.742;7.158;2024-02-23T11:33:26;11.20;99.90
3644;DHT22;1838;50.742;7.158;2024-02-23T11:35:52;11.10;99.90
3644;DHT22;1838;50.742;7.158;2024-02-23T11:38:18;11.10;99.90
3644;DHT22;1838;50.742;7.158;2024-02-23T11:40:46;11.20;99.90
3644;DHT22;1838;50.742;7.158;2024-02-23T11:43:14;11.20;99.90
3644;DHT22;1838;50.742;7.158;2024-02-23T11:45:40;11.20;99.90
3644;DHT22;1838;50.742;7.158;2024-02-23T11:48:07;10.90;99.90
3644;DHT22;1838;50.742;7.158;2024-02-23T11:50:32;10.80;99.90
3644;DHT22;1838;50.742;7.158;2024-02-23T11:52:59;11.00;99.90
3644;DHT22;1838;50.742;7.158;2024-02-23T11:55:26;11.10;99.90
3644;DHT22;1838;50.742;7.158;2024-02-23T11:57:51;11.40;99.90
3644;DHT22;1838;50.742;7.158;2024-02-23T12:00:17;11.40;99.90
3644;DHT22;1838;50.742;7.158;2024-02-23T12:02:44;11.60;99.90
3644;DHT22;1838;50.742;7.158;2024-02-23T12:05:11;11.60;99.90
3644;DHT22;1838;50.742;7.158;2024-02-23T12:07:37;11.80;99.90
3644;DHT22;1838;50.742;7.158;2024-02-23T12:10:03;11.70;99.90
3644;DHT22;1838;50.742;7.158;2024-02-23T12:12:29;11.70;99.90
3644;DHT22;1838;50.742;7.158;2024-02-23T12:14:54;11.70;99.90
3644;DHT22;1838;50.742;7.158;2024-02-23T12:17:20;11.50;99.90
3644;DHT22;1838;50.742;7.158;2024-02-23T12:19:45;11.50;99.90
3644;DHT22;1838;50.742;7.158;2024-02-23T12:22:11;11.40;99.90
3644;DHT22;1838;50.742;7.158;2024-02-23T12:24:37;11.30;99.90
3644;DHT22;1838;50.742;7.158;2024-02-23T12:27:03;11.30;99.90
3644;DHT22;1838;50.742;7.158;2024-02-23T12:29:30;11.10;99.90
3644;DHT22;1838;50.742;7.158;2024-02-23T12:32:08;11.00;99.90
3644;DHT22;1838;50.742;7.158;2024-02-23T12:34:34;11.10;99.90
3644;DHT22;1838;50.742;7.158;2024-02-23T12:37:02;11.10;99.90
3644;DHT22;1838;50.742;7.158;2024-02-23T12:39:28;11.10;99.90
3644;DHT22;1838;50.742;7.158;2024-02-23T12:41:53;11.20;99.90
3644;DHT22;1838;50.742;7.158;2024-02-23T12:44:20;11.30;99.90
3644;DHT22;1838;50.742;7.158;2024-02-23T12:46:46;11.50;99.90
3644;DHT22;1838;50.742;7.158;2024-02-23T12:49:11;11.50;99.90
3644;DHT22;1838;50.742;7.158;2024-02-23T12:51:37;11.70;99.90
3644;DHT22;1838;50.742;7.158;2024-02-23T12:54:02;11.90;99.90
3644;DHT22;1838;50.742;7.158;2024-02-23T12:56:30;11.90;99.90
3644;DHT22;1838;50.742;7.158;2024-02-23T12:58:57;12.10;99.90
3644;DHT22;1838;50.742;7.158;2024-02-23T13:01:22;12.10;99.90
3644;DHT22;1838;50.742;7.158;2024-02-23T13:03:48;11.80;99.90
3644;DHT22;1838;50.742;7.158;2024-02-23T13:06:13;11.60;99.90
3644;DHT22;1838;50.742;7.158;2024-02-23T13:08:39;11.70;99.90
3644;DHT22;1838;50.742;7.158;2024-02-23T13:11:06;11.70;99.90
3644;DHT22;1838;50.742;7.158;2024-02-23T13:13:31;11.70;99.90
3644;DHT22;1838;50.742;7.158;2024-02-23T13:15:57;11.80;99.90
3644;DHT22;1838;50.742;7.158;2024-02-23T13:18:22;11.90;99.90
3644;DHT22;1838;50.742;7.158;2024-02-23T13:20:48;12.00;99.90
3644;DHT22;1838;50.742;7.158;2024-02-23T13:23:14;12.10;99.90
3644;DHT22;1838;50.742;7.158;2024-02-23T13:25:41;11.90;99.90
3644;DHT22;1838;50.742;7.158;2024-02-23T13:28:08;11.80;99.90
3644;DHT22;1838;50.742;7.158;2024-02-23T13:30:34;11.70;99.90
3644;DHT22;1838;50.742;7.158;2024-02-23T13:33:00;11.80;99.90
3644;DHT22;1838;50.742;7.158;2024-02-23T13:35:26;11.80;99.90
3644;DHT22;1838;50.742;7.158;2024-02-23T13:37:52;11.80;99.90
3644;DHT22;1838;50.742;7.158;2024-02-23T13:40:18;11.70;99.90
3644;DHT22;1838;50.742;7.158;2024-02-23T13:42:43;11.60;99.90
3644;DHT22;1838;50.742;7.158;2024-02-23T13:45:11;11.60;99.90
3644;DHT22;1838;50.742;7.158;2024-02-23T13:47:39;11.60;99.90
3644;DHT22;1838;50.742;7.158;2024-02-23T13:50:05;11.50;99.90
3644;DHT22;1838;50.742;7.158;2024-02-23T13:52:31;11.50;99.90
3644;DHT22;1838;50.742;7.158;2024-02-23T13:54:57;11.70;99.90
3644;DHT22;1838;50.742;7.158;2024-02-23T13:57:22;11.80;99.90
3644;DHT22;1838;50.742;7.158;2024-02-23T13:59:48;11.90;99.90
3644;DHT22;1838;50.742;7.158;2024-02-23T14:02:13;11.90;99.90
3644;DHT22;1838;50.742;7.158;2024-02-23T14:04:39;11.90;99.90
3644;DHT22;1838;50.742;7.158;2024-02-23T14:07:06;12.00;99.90
3644;DHT22;1838;50.742;7.158;2024-02-23T14:09:31;12.20;99.90
3644;DHT22;1838;50.742;7.158;2024-02-23T14:11:57;12.30;99.90
3644;DHT22;1838;50.742;7.158;2024-02-23T14:14:23;12.20;99.90
3644;DHT22;1838;50.742;7.158;2024-02-23T14:16:49;12.10;99.90
3644;DHT22;1838;50.742;7.158;2024-02-23T14:19:14;12.00;99.90
3644;DHT22;1838;50.742;7.158;2024-02-23T14:21:40;12.20;99.90
3644;DHT22;1838;50.742;7.158;2024-02-23T14:24:06;12.30;99.90
3644;DHT22;1838;50.742;7.158;2024-02-23T14:26:31;12.40;99.90
3644;DHT22;1838;50.742;7.158;2024-02-23T14:28:58;12.60;99.90
3644;DHT22;1838;50.742;7.158;2024-02-23T14:31:24;12.60;99.90
3644;DHT22;1838;50.742;7.158;2024-02-23T14:33:49;12.60;99.90
3644;DHT22;1838;50.742;7.158;2024-02-23T14:36:17;12.40;99.90
3644;DHT22;1838;50.742;7.158;2024-02-23T14:38:42;12.50;99.90
3644;DHT22;1838;50.742;7.158;2024-02-23T14:41:08;12.60;99.90
3644;DHT22;1838;50.742;7.158;2024-02-23T14:43:35;12.70;99.90
3644;DHT22;1838;50.742;7.158;2024-02-23T14:46:00;12.90;99.90
3644;DHT22;1838;50.742;7.158;2024-02-23T14:48:26;12.50;99.90
3644;DHT22;1838;50.742;7.158;2024-02-23T14:50:51;12.50;99.90
3644;DHT22;1838;50.742;7.158;2024-02-23T14:53:17;12.50;99.90
3644;DHT22;1838;50.742;7.158;2024-02-23T14:55:43;12.60;99.90
3644;DHT22;1838;50.742;7.158;2024-02-23T14:58:08;12.70;99.90
3644;DHT22;1838;50.742;7.158;2024-02-23T15:00:34;12.70;99.90
3644;DHT22;1838;50.742;7.158;2024-02-23T15:03:00;12.70;99.90
3644;DHT22;1838;50.742;7.158;2024-02-23T15:05:25;12.60;99.90
3644;DHT22;1838;50.742;7.158;2024-02-23T15:07:51;12.60;99.90
3644;DHT22;1838;50.742;7.158;2024-02-23T15:10:17;12.20;99.90
3644;DHT22;1838;50.742;7.158;2024-02-23T15:12:42;11.90;99.90
3644;DHT22;1838;50.742;7.158;2024-02-23T15:15:08;11.60;99.90
3644;DHT22;1838;50.742;7.158;2024-02-23T15:17:35;11.30;99.90
3644;DHT22;1838;50.742;7.158;2024-02-23T15:20:00;11.10;99.90
3644;DHT22;1838;50.742;7.158;2024-02-23T15:22:26;11.00;99.90
3644;DHT22;1838;50.742;7.158;2024-02-23T15:24:52;10.90;99.90
3644;DHT22;1838;50.742;7.158;2024-02-23T15:27:18;10.90;99.90
3644;DHT22;1838;50.742;7.158;2024-02-23T15:29:45;10.90;99.90
3644;DHT22;1838;50.742;7.158;2024-02-23T15:32:10;10.80;99.90
3644;DHT22;1838;50.742;7.158;2024-02-23T15:34:36;10.80;99.90
3644;DHT22;1838;50.742;7.158;2024-02-23T15:37:02;10.80;99.90
3644;DHT22;1838;50.742;7.158;2024-02-23T15:39:28;10.90;99.90
3644;DHT22;1838;50.742;7.158;2024-02-23T15:41:53;10.90;99.90
3644;DHT22;1838;50.742;7.158;2024-02-23T15:44:19;10.90;99.90
3644;DHT22;1838;50.742;7.158;2024-02-23T15:46:44;10.70;99.90
3644;DHT22;1838;50.742;7.158;2024-02-23T15:49:11;10.60;99.90
3644;DHT22;1838;50.742;7.158;2024-02-23T15:51:37;10.50;99.90
3644;DHT22;1838;50.742;7.158;2024-02-23T15:54:03;10.40;99.90
3644;DHT22;1838;50.742;7.158;2024-02-23T15:56:30;10.40;99.90
3644;DHT22;1838;50.742;7.158;2024-02-23T15:58:55;10.30;99.90
3644;DHT22;1838;50.742;7.158;2024-02-23T16:01:21;10.20;99.90
3644;DHT22;1838;50.742;7.158;2024-02-23T16:03:47;10.10;99.90
3644;DHT22;1838;50.742;7.158;2024-02-23T16:06:12;10.10;99.90